createdAt,value
2022-08-09T00:05:03.739Z,3.35
2022-08-09T00:08:32.641Z,3.50
2022-08-09T00:12:02.992Z,3.35
2022-08-09T00:14:57.392Z,3.28
2022-08-09T00:18:09.289Z,3.30
2022-08-09T00:21:13.422Z,3.70
2022-08-09T00:24:15.447Z,3.58
2022-08-09T00:27:21.701Z,3.37
2022-08-09T00:30:25.456Z,3.70
2022-08-09T00:33:32.552Z,3.42
2022-08-09T00:36:49.814Z,3.40
2022-08-09T00:40:13.363Z,3.45
2022-08-09T00:44:13.805Z,3.80
2022-08-09T00:46:55.615Z,3.60
2022-08-09T00:49:58.938Z,3.85
2022-08-09T00:53:00.998Z,3.30
2022-08-09T00:56:14.286Z,3.62
2022-08-09T00:59:31.681Z,3.62
2022-08-09T01:02:42.942Z,3.25
2022-08-09T01:06:17.677Z,3.58
2022-08-09T01:09:36.627Z,3.90
2022-08-09T01:12:45.142Z,3.33
2022-08-09T01:15:51.859Z,4.32
2022-08-09T01:19:02.616Z,3.60
2022-08-09T01:22:16.437Z,3.80
2022-08-09T01:25:42.066Z,3.55
2022-08-09T01:28:54.142Z,3.50
2022-08-09T01:32:32.043Z,3.30
2022-08-09T01:35:37.366Z,4.18
2022-08-09T01:38:46.563Z,3.40
2022-08-09T01:41:53.451Z,3.45
2022-08-09T01:45:05.574Z,3.40
2022-08-09T01:48:10.290Z,3.70
2022-08-09T01:51:22.703Z,3.53
2022-08-09T01:54:32.921Z,3.83
2022-08-09T01:57:44.294Z,3.50
2022-08-09T02:00:50.513Z,3.53
2022-08-09T02:03:55.926Z,3.55
2022-08-09T02:08:34.889Z,3.55
2022-08-09T02:10:42.828Z,3.60
2022-08-09T02:14:07.404Z,3.42
2022-08-09T02:17:15.006Z,3.50
2022-08-09T02:20:45.157Z,3.90
2022-08-09T02:23:56.512Z,3.67
2022-08-09T02:27:01.985Z,3.62
2022-08-09T02:30:06.169Z,3.72
2022-08-09T02:33:14.564Z,3.42
2022-08-09T02:36:22.563Z,3.53
2022-08-09T02:39:42.065Z,4.00
2022-08-09T02:42:50.999Z,3.95
2022-08-09T02:45:54.198Z,3.78
2022-08-09T02:49:01.259Z,3.72
2022-08-09T02:52:07.827Z,3.80
2022-08-09T02:55:15.896Z,3.50
2022-08-09T02:58:36.849Z,4.28
2022-08-09T03:01:43.349Z,4.07
2022-08-09T03:05:03.467Z,4.18
2022-08-09T03:08:09.792Z,3.80
2022-08-09T03:12:04.814Z,4.03
2022-08-09T03:14:40.106Z,4.28
2022-08-09T03:17:43.901Z,4.35
2022-08-09T03:20:46.412Z,4.30
2022-08-09T03:24:01.550Z,4.03
2022-08-09T03:27:10.676Z,4.45
2022-08-09T03:30:30.145Z,3.90
2022-08-09T03:33:54.096Z,3.90
2022-08-09T03:36:59.798Z,4.10
2022-08-09T03:40:05.053Z,3.83
2022-08-09T03:43:06.761Z,3.97
2022-08-09T03:46:27.153Z,4.57
2022-08-09T03:49:35.559Z,4.28
2022-08-09T03:52:41.719Z,4.43
2022-08-09T03:55:43.970Z,4.22
2022-08-09T03:58:46.768Z,3.70
2022-08-09T04:01:53.810Z,3.90
2022-08-09T04:05:06.268Z,4.20
2022-08-09T04:08:08.833Z,4.28
2022-08-09T04:11:11.689Z,4.30
2022-08-09T04:14:53.945Z,4.25
2022-08-09T04:17:42.303Z,4.50
2022-08-09T04:20:47.527Z,4.82
2022-08-09T04:23:53.904Z,4.60
2022-08-09T04:26:56.211Z,4.68
2022-08-09T04:29:58.380Z,4.28
2022-08-09T04:33:01.224Z,4.30
2022-08-09T04:36:03.440Z,4.80
2022-08-09T04:39:09.856Z,4.60
2022-08-09T04:42:15.735Z,4.75
2022-08-09T04:45:20.696Z,4.62
2022-08-09T04:48:23.871Z,4.28
2022-08-09T04:51:35.512Z,4.70
2022-08-09T04:54:38.721Z,3.85
2022-08-09T04:57:58.702Z,4.35
2022-08-09T05:01:02.668Z,4.32
2022-08-09T05:04:05.453Z,4.75
2022-08-09T05:07:07.306Z,4.60
2022-08-09T05:10:20.718Z,4.40
2022-08-09T05:13:22.579Z,4.45
2022-08-09T05:16:31.751Z,4.35
2022-08-09T05:19:44.964Z,4.55
2022-08-09T05:23:54.237Z,4.32
2022-08-09T05:26:31.665Z,4.40
2022-08-09T05:29:39.490Z,4.20
2022-08-09T05:32:42.033Z,4.60
2022-08-09T05:35:46.902Z,4.85
2022-08-09T05:41:54.167Z,4.37
2022-08-09T05:44:57.395Z,4.20
2022-08-09T05:48:01.385Z,4.65
2022-08-09T05:51:30.110Z,3.95
2022-08-09T05:54:25.216Z,4.40
2022-08-09T05:57:51.178Z,4.30
2022-08-09T06:00:49.686Z,4.50
2022-08-09T06:03:57.997Z,4.55
2022-08-09T06:07:00.551Z,4.10
2022-08-09T06:10:04.031Z,4.72
2022-08-09T06:13:18.506Z,4.40
2022-08-09T06:16:22.592Z,4.30
2022-08-09T06:19:24.652Z,4.37
2022-08-09T06:22:29.449Z,4.32
2022-08-09T06:25:31.734Z,4.28
2022-08-09T06:28:36.153Z,4.05
2022-08-09T06:32:09.010Z,2.90
2022-08-09T06:35:00.741Z,4.07
2022-08-09T06:38:06.035Z,4.15
2022-08-09T06:41:18.309Z,3.53
2022-08-09T06:44:21.160Z,3.62
2022-08-09T06:47:23.734Z,3.90
2022-08-09T06:50:26.153Z,4.35
2022-08-09T06:53:33.255Z,3.37
2022-08-09T06:56:40.511Z,2.92
2022-08-09T07:00:55.745Z,2.60
2022-08-09T07:03:09.095Z,3.20
2022-08-09T07:06:12.915Z,3.03
2022-08-09T07:09:57.064Z,3.28
2022-08-09T07:12:41.042Z,3.53
2022-08-09T07:15:54.014Z,3.10
2022-08-09T07:19:06.342Z,2.97
2022-08-09T07:22:10.788Z,2.90
2022-08-09T07:25:13.310Z,2.67
2022-08-09T07:28:18.972Z,2.80
2022-08-09T07:31:21.409Z,3.22
2022-08-09T07:34:26.735Z,3.00
2022-08-09T07:37:28.435Z,3.30
2022-08-09T07:40:46.270Z,3.20
2022-08-09T07:43:56.503Z,3.05
2022-08-09T07:46:58.421Z,3.95
2022-08-09T07:50:08.345Z,3.17
2022-08-09T07:53:10.951Z,4.43
2022-08-09T07:56:27.254Z,6.15
2022-08-09T07:59:45.874Z,3.47
2022-08-09T08:02:59.557Z,3.67
2022-08-09T08:06:01.947Z,3.08
2022-08-09T08:09:07.507Z,5.30
2022-08-09T08:12:28.420Z,3.47
2022-08-09T08:15:35.532Z,3.37
2022-08-09T08:18:39.572Z,3.33
2022-08-09T08:21:52.905Z,3.28
2022-08-09T08:24:57.632Z,2.72
2022-08-09T08:27:59.386Z,3.10
2022-08-09T08:31:10.637Z,3.37
2022-08-09T08:34:17.044Z,3.10
2022-08-09T08:37:22.619Z,3.10
2022-08-09T08:40:26.964Z,3.22
2022-08-09T08:43:31.818Z,2.78
2022-08-09T08:46:41.487Z,3.25
2022-08-09T08:50:03.006Z,2.90
2022-08-09T08:53:05.825Z,2.72
2022-08-09T08:56:27.968Z,3.05
2022-08-09T08:59:46.713Z,2.80
2022-08-09T09:02:52.534Z,2.67
2022-08-09T09:06:03.290Z,2.92
2022-08-09T09:09:20.736Z,3.15
2022-08-09T09:12:34.241Z,3.10
2022-08-09T09:15:38.565Z,2.62
2022-08-09T09:18:48.017Z,2.90
2022-08-09T09:22:04.025Z,2.87
2022-08-09T09:26:02.127Z,3.15
2022-08-09T09:29:02.387Z,2.78
2022-08-09T09:32:04.085Z,2.80
2022-08-09T09:35:17.753Z,3.03
2022-08-09T09:38:36.399Z,2.92
2022-08-09T09:41:48.812Z,2.95
2022-08-09T09:45:03.763Z,2.85
2022-08-09T09:48:05.826Z,3.20
2022-08-09T09:51:11.525Z,2.62
2022-08-09T09:54:22.524Z,3.87
2022-08-09T09:58:03.710Z,3.58
2022-08-09T10:00:58.836Z,2.70
2022-08-09T10:04:04.353Z,3.03
2022-08-09T10:07:24.190Z,2.60
2022-08-09T10:10:31.697Z,3.00
2022-08-09T10:13:43.358Z,3.40
2022-08-09T10:16:56.897Z,2.55
2022-08-09T10:20:35.488Z,3.22
2022-08-09T10:23:37.953Z,2.95
2022-08-09T10:26:42.059Z,2.50
2022-08-09T10:30:16.556Z,2.72
2022-08-09T10:33:29.654Z,2.30
2022-08-09T10:36:33.043Z,2.70
2022-08-09T10:39:40.575Z,3.00
2022-08-09T10:42:52.847Z,2.83
2022-08-09T10:45:59.939Z,2.97
2022-08-09T10:49:19.845Z,2.55
2022-08-09T10:53:00.193Z,2.83
2022-08-09T10:56:17.626Z,3.00
2022-08-09T10:59:31.704Z,2.40
2022-08-09T11:03:15.687Z,2.60
2022-08-09T11:06:15.975Z,2.78
2022-08-09T11:09:19.879Z,2.80
2022-08-09T11:12:30.367Z,2.55
2022-08-09T11:15:33.949Z,2.33
2022-08-09T11:18:46.117Z,2.62
2022-08-09T11:22:18.480Z,3.08
2022-08-09T11:25:25.919Z,2.90
2022-08-09T11:28:56.320Z,2.83
2022-08-09T11:31:59.176Z,2.83
2022-08-09T11:35:09.201Z,2.58
2022-08-09T11:38:18.169Z,2.90
2022-08-09T11:41:21.288Z,2.30
2022-08-09T11:44:44.075Z,2.80
2022-08-09T11:47:47.137Z,2.70
2022-08-09T11:52:56.558Z,2.80
2022-08-09T11:54:28.667Z,3.00
2022-08-09T11:57:47.592Z,2.90
2022-08-09T12:01:08.308Z,2.70
2022-08-09T12:04:20.869Z,2.72
2022-08-09T12:07:41.173Z,2.60
2022-08-09T12:10:49.966Z,2.72
2022-08-09T12:14:09.083Z,2.65
2022-08-09T12:17:27.829Z,2.53
2022-08-09T12:20:43.768Z,2.70
2022-08-09T12:24:06.227Z,3.03
2022-08-09T12:29:10.642Z,2.50
2022-08-09T12:30:43.067Z,2.70
2022-08-09T12:33:59.310Z,2.55
2022-08-09T12:37:21.412Z,2.47
2022-08-09T12:40:30.272Z,2.60
2022-08-09T12:44:07.009Z,2.97
2022-08-09T12:46:55.744Z,3.00
2022-08-09T12:50:19.857Z,2.72
2022-08-09T12:53:38.487Z,2.90
2022-08-09T12:56:53.714Z,2.50
2022-08-09T13:00:35.014Z,2.62
2022-08-09T13:03:54.116Z,2.55
2022-08-09T13:07:10.138Z,2.40
2022-08-09T13:10:11.881Z,2.30
2022-08-09T13:13:15.255Z,2.45
2022-08-09T13:16:17.465Z,2.40
2022-08-09T13:20:08.900Z,2.40
2022-08-09T13:24:05.752Z,2.42
2022-08-09T13:26:40.077Z,2.45
2022-08-09T13:30:04.310Z,2.20
2022-08-09T13:33:24.613Z,2.70
2022-08-09T13:36:46.449Z,2.08
2022-08-09T13:41:46.924Z,2.90
2022-08-09T13:43:15.976Z,2.72
2022-08-09T13:47:16.357Z,2.75
2022-08-09T13:49:56.522Z,2.37
2022-08-09T13:53:02.693Z,2.55
2022-08-09T13:56:05.973Z,2.58
2022-08-09T13:59:13.715Z,2.60
2022-08-09T14:02:25.900Z,2.75
2022-08-09T14:05:59.081Z,2.20
2022-08-09T14:08:49.890Z,3.10
2022-08-09T14:11:53.304Z,2.45
2022-08-09T14:14:56.545Z,2.90
2022-08-09T14:18:19.388Z,2.83
2022-08-09T14:21:22.302Z,2.55
2022-08-09T14:24:32.473Z,3.10
2022-08-09T14:27:37.124Z,3.15
2022-08-09T14:30:57.587Z,2.78
2022-08-09T14:34:04.341Z,3.20
2022-08-09T14:37:10.209Z,3.05
2022-08-09T14:40:12.430Z,2.37
2022-08-09T14:43:18.542Z,3.33
2022-08-09T14:46:57.639Z,2.53
2022-08-09T14:49:49.174Z,3.30
2022-08-09T14:53:11.557Z,2.83
2022-08-09T14:56:14.001Z,3.03
2022-08-09T14:59:15.837Z,2.87
2022-08-09T15:02:17.912Z,2.50
2022-08-09T15:05:22.438Z,2.50
2022-08-09T15:08:24.579Z,2.62
2022-08-09T15:11:26.521Z,2.70
2022-08-09T15:14:33.993Z,2.80
2022-08-09T15:17:41.950Z,3.10
2022-08-09T15:22:01.246Z,3.00
2022-08-09T15:24:12.742Z,3.30
2022-08-09T15:27:16.106Z,2.92
2022-08-09T15:30:58.870Z,3.05
2022-08-09T15:34:17.477Z,3.15
2022-08-09T15:37:04.384Z,2.90
2022-08-09T15:40:11.475Z,3.00
2022-08-09T15:43:14.327Z,2.92
2022-08-09T15:46:32.415Z,2.72
2022-08-09T15:49:36.614Z,3.17
2022-08-09T15:52:42.390Z,3.62
2022-08-09T15:56:21.419Z,3.22
2022-08-09T15:59:19.484Z,3.22
2022-08-09T16:02:26.947Z,3.20
2022-08-09T16:05:47.511Z,3.65
2022-08-09T16:08:52.129Z,3.00
2022-08-09T16:11:54.623Z,3.30
2022-08-09T16:15:01.361Z,3.42
2022-08-09T16:18:04.999Z,2.95
2022-08-09T16:21:06.679Z,3.40
2022-08-09T16:24:19.968Z,3.20
2022-08-09T16:27:31.885Z,3.10
2022-08-09T16:30:37.889Z,3.30
2022-08-09T16:33:46.291Z,3.05
2022-08-09T16:36:47.974Z,3.03
2022-08-09T16:40:04.335Z,2.87
2022-08-09T16:43:07.004Z,3.58
2022-08-09T16:46:09.355Z,2.90
2022-08-09T16:49:25.824Z,2.97
2022-08-09T16:52:37.037Z,2.62
2022-08-09T16:55:57.924Z,2.80
2022-08-09T16:59:10.211Z,2.70
2022-08-09T17:02:13.810Z,2.42
2022-08-09T17:05:19.699Z,2.17
2022-08-09T17:08:47.089Z,2.37
2022-08-09T17:11:44.492Z,2.40
2022-08-09T17:14:57.689Z,2.28
2022-08-09T17:18:00.730Z,1.85
2022-08-09T17:21:02.885Z,2.08
2022-08-09T17:24:20.422Z,2.10
2022-08-09T17:27:23.744Z,2.20
2022-08-09T17:30:30.859Z,1.65
2022-08-09T17:33:37.766Z,1.60
2022-08-09T17:36:39.730Z,2.00
2022-08-09T17:39:55.666Z,2.05
2022-08-09T17:43:03.162Z,1.65
2022-08-09T17:46:12.942Z,1.60
2022-08-09T17:49:18.615Z,1.50
2022-08-09T17:52:22.515Z,1.20
2022-08-09T17:55:24.385Z,1.48
2022-08-09T17:58:46.166Z,1.40
2022-08-09T18:02:07.912Z,1.65
2022-08-09T18:05:13.168Z,1.37
2022-08-09T18:08:15.025Z,1.33
2022-08-09T18:11:18.062Z,1.17
2022-08-09T18:14:26.474Z,1.55
2022-08-09T18:18:03.703Z,1.23
2022-08-09T18:20:53.814Z,1.20
2022-08-09T18:24:10.627Z,1.45
2022-08-09T18:27:18.804Z,1.17
2022-08-09T18:30:49.234Z,1.77
2022-08-09T18:33:54.153Z,1.20
2022-08-09T18:37:03.678Z,0.98
2022-08-09T18:40:07.541Z,1.40
2022-08-09T18:43:09.805Z,1.42
2022-08-09T18:46:46.929Z,1.08
2022-08-09T18:49:41.733Z,1.33
2022-08-09T18:52:50.974Z,1.10
2022-08-09T18:55:56.871Z,1.20
2022-08-09T18:59:07.392Z,0.88
2022-08-09T19:02:12.000Z,1.10
2022-08-09T19:05:28.728Z,1.30
2022-08-09T19:08:38.848Z,1.00
2022-08-09T19:11:41.618Z,1.08
2022-08-09T19:14:43.641Z,0.93
2022-08-09T19:17:54.549Z,0.90
2022-08-09T19:20:58.702Z,1.17
2022-08-09T19:24:32.452Z,1.10
2022-08-09T19:27:28.347Z,0.90
2022-08-09T19:30:32.339Z,1.33
2022-08-09T19:33:34.767Z,1.20
2022-08-09T19:36:36.835Z,1.10
2022-08-09T19:40:02.298Z,1.02
2022-08-09T19:43:00.776Z,1.12
2022-08-09T19:46:02.844Z,1.52
2022-08-09T19:50:05.211Z,1.42
2022-08-09T19:52:29.145Z,1.20
2022-08-09T19:56:02.500Z,1.00
2022-08-09T19:59:18.102Z,1.02
2022-08-09T20:04:12.175Z,1.15
2022-08-09T20:05:46.371Z,0.70
2022-08-09T20:08:55.306Z,0.88
2022-08-09T20:12:02.442Z,0.85
2022-08-09T20:16:35.772Z,1.05
2022-08-09T20:18:28.500Z,1.00
2022-08-09T20:21:55.033Z,1.10
2022-08-09T20:24:54.156Z,1.00
2022-08-09T20:27:56.390Z,2.75
2022-08-09T20:30:58.427Z,0.93
2022-08-09T20:34:01.937Z,1.10
2022-08-09T20:37:04.511Z,0.95
2022-08-09T20:40:17.422Z,1.40
2022-08-09T20:43:24.249Z,1.10
2022-08-09T20:46:42.157Z,1.08
2022-08-09T20:49:44.498Z,1.17
2022-08-09T20:52:46.275Z,1.30
2022-08-09T20:56:02.071Z,1.10
2022-08-09T20:59:04.878Z,1.23
2022-08-09T21:02:07.556Z,1.20
2022-08-09T21:05:57.009Z,1.10
2022-08-09T21:08:36.208Z,1.40
2022-08-09T21:15:02.936Z,2.10
2022-08-09T21:18:22.260Z,1.40
2022-08-09T21:21:52.796Z,1.05
2022-08-09T21:25:07.109Z,1.20
2022-08-09T21:28:12.203Z,1.30
2022-08-09T21:31:19.950Z,1.35
2022-08-09T21:34:29.214Z,1.15
2022-08-09T21:37:35.477Z,1.10
2022-08-09T21:40:50.701Z,0.90
2022-08-09T21:43:57.905Z,0.98
2022-08-09T21:46:59.964Z,0.95
2022-08-09T21:50:02.112Z,1.30
2022-08-09T21:53:06.337Z,1.20
2022-08-09T21:56:34.000Z,1.10
2022-08-09T21:59:42.833Z,1.02
2022-08-09T22:02:51.039Z,1.27
2022-08-09T22:06:01.438Z,1.10
2022-08-09T22:09:03.756Z,1.20
2022-08-09T22:12:18.590Z,1.20
2022-08-09T22:15:23.414Z,1.60
2022-08-09T22:18:52.295Z,1.70
2022-08-09T22:21:56.693Z,1.73
2022-08-09T22:26:05.421Z,1.40
2022-08-09T22:28:21.146Z,1.40
2022-08-09T22:31:35.984Z,1.40
2022-08-09T22:34:41.049Z,0.90
2022-08-09T22:37:42.942Z,1.08
2022-08-09T22:40:48.982Z,1.08
2022-08-09T22:44:03.230Z,1.15
2022-08-09T22:48:12.251Z,0.95
2022-08-09T22:50:28.165Z,1.10
2022-08-09T22:53:44.478Z,1.20
2022-08-09T22:56:54.701Z,1.40
2022-08-09T22:59:59.462Z,1.92
2022-08-09T23:03:01.539Z,1.50
2022-08-09T23:06:03.939Z,1.60
2022-08-09T23:09:06.965Z,1.70
2022-08-09T23:12:08.648Z,1.15
2022-08-09T23:15:11.393Z,0.90
2022-08-09T23:18:13.303Z,1.15
2022-08-09T23:21:24.186Z,1.27
2022-08-09T23:24:27.964Z,0.93
2022-08-09T23:27:29.823Z,1.37
2022-08-09T23:30:31.829Z,1.10
2022-08-09T23:33:33.463Z,1.17
2022-08-09T23:36:36.497Z,1.02
2022-08-09T23:39:38.184Z,1.15
2022-08-09T23:42:40.629Z,1.15
2022-08-09T23:45:42.399Z,1.20
2022-08-09T23:48:44.242Z,1.05
2022-08-09T23:51:46.067Z,1.20
2022-08-09T23:54:48.115Z,1.08
2022-08-09T23:58:07.877Z,0.98
